createdAt,value
2022-08-17T00:01:02.753Z,18.4
2022-08-17T00:06:03.158Z,17.7
2022-08-17T00:11:02.336Z,17.8
2022-08-17T00:16:02.015Z,18.0
2022-08-17T00:21:02.121Z,19.2
2022-08-17T00:26:02.088Z,19.0
2022-08-17T00:31:02.057Z,18.4
2022-08-17T00:36:02.192Z,18.5
2022-08-17T00:41:02.041Z,18.0
2022-08-17T00:46:02.123Z,18.1
2022-08-17T00:51:02.166Z,16.7
2022-08-17T00:56:02.212Z,17.3
2022-08-17T01:01:02.201Z,18.6
2022-08-17T01:06:02.161Z,16.8
2022-08-17T01:11:02.357Z,16.5
2022-08-17T01:16:02.012Z,17.4
2022-08-17T01:21:02.381Z,17.1
2022-08-17T01:26:02.232Z,18.0
2022-08-17T01:31:02.283Z,17.7
2022-08-17T01:36:02.227Z,18.3
2022-08-17T01:41:02.329Z,18.3
2022-08-17T01:46:02.783Z,21.2
2022-08-17T01:51:01.981Z,23.6
2022-08-17T01:56:02.146Z,21.2
2022-08-17T02:01:02.072Z,21.7
2022-08-17T02:06:02.054Z,22.5
2022-08-17T02:11:02.112Z,22.6
2022-08-17T02:16:01.983Z,23.4
2022-08-17T02:21:01.887Z,28.6
2022-08-17T02:26:02.163Z,29.9
2022-08-17T02:31:03.178Z,29.2
2022-08-17T02:36:01.943Z,28.4
2022-08-17T02:41:02.300Z,26.1
2022-08-17T02:46:01.904Z,23.2
2022-08-17T02:51:01.969Z,19.6
2022-08-17T02:56:02.709Z,19.3
2022-08-17T03:01:01.840Z,19.9
2022-08-17T03:06:01.838Z,21.4
2022-08-17T03:11:02.067Z,18.5
2022-08-17T03:16:01.912Z,18.1
2022-08-17T03:21:01.933Z,17.6
2022-08-17T03:26:01.749Z,17.3
2022-08-17T03:31:01.849Z,18.1
2022-08-17T03:36:02.776Z,19.5
2022-08-17T03:41:01.989Z,23.2
2022-08-17T03:46:01.898Z,19.5
2022-08-17T03:51:01.833Z,20.6
2022-08-17T03:56:02.045Z,20.1
2022-08-17T04:01:02.853Z,19.2
2022-08-17T04:06:01.743Z,20.0
2022-08-17T04:11:01.978Z,17.9
2022-08-17T04:16:01.790Z,15.0
2022-08-17T04:21:01.720Z,15.2
2022-08-17T04:26:01.900Z,14.4
2022-08-17T04:31:01.753Z,17.2
2022-08-17T04:36:01.804Z,16.5
2022-08-17T04:41:01.846Z,16.5
2022-08-17T04:46:01.703Z,17.9
2022-08-17T04:51:01.683Z,18.7
2022-08-17T04:56:01.880Z,19.0
2022-08-17T05:01:01.844Z,20.7
2022-08-17T05:06:02.674Z,20.7
2022-08-17T05:11:02.216Z,19.6
2022-08-17T05:16:01.749Z,21.0
2022-08-17T05:21:01.611Z,23.1
2022-08-17T05:26:02.174Z,27.1
2022-08-17T05:31:01.731Z,27.1
2022-08-17T05:36:02.508Z,27.5
2022-08-17T05:41:01.598Z,27.7
2022-08-17T05:46:01.973Z,26.1
2022-08-17T05:51:01.663Z,26.0
2022-08-17T05:56:01.668Z,27.9
2022-08-17T06:01:01.782Z,26.9
2022-08-17T06:06:01.596Z,27.9
2022-08-17T06:11:01.541Z,28.4
2022-08-17T06:16:01.655Z,26.3
2022-08-17T06:21:01.687Z,25.3
2022-08-17T06:26:01.756Z,23.1
2022-08-17T06:31:01.711Z,23.0
2022-08-17T06:36:01.541Z,21.9
2022-08-17T06:41:01.519Z,20.0
2022-08-17T06:46:01.716Z,19.4
2022-08-17T06:51:02.558Z,17.5
2022-08-17T06:56:01.609Z,17.9
2022-08-17T07:01:01.461Z,16.8
2022-08-17T07:06:01.566Z,16.6
2022-08-17T07:11:01.543Z,15.0
2022-08-17T07:16:01.637Z,14.1
2022-08-17T07:21:01.353Z,13.2
2022-08-17T07:26:01.397Z,13.2
2022-08-17T07:31:01.741Z,12.6
2022-08-17T07:36:01.451Z,12.1
2022-08-17T07:41:01.445Z,11.7
2022-08-17T07:46:01.629Z,12.0
2022-08-17T07:51:01.413Z,12.5
2022-08-17T07:56:01.396Z,24.3
2022-08-17T08:01:01.485Z,13.3
2022-08-17T08:06:01.418Z,11.9
2022-08-17T08:11:01.417Z,11.7
2022-08-17T08:16:01.548Z,11.6
2022-08-17T08:21:01.502Z,11.9
2022-08-17T08:26:01.452Z,11.3
2022-08-17T08:31:02.342Z,11.6
2022-08-17T08:36:02.595Z,11.6
2022-08-17T08:41:02.497Z,9.8
2022-08-17T08:46:02.419Z,8.8
2022-08-17T08:51:02.322Z,9.5
2022-08-17T08:56:02.409Z,9.2
2022-08-17T09:01:02.450Z,9.5
2022-08-17T09:06:02.309Z,9.8
2022-08-17T09:11:02.597Z,9.7
2022-08-17T09:16:02.303Z,10.3
2022-08-17T09:21:02.278Z,10.8
2022-08-17T09:26:02.390Z,10.2
2022-08-17T09:31:02.317Z,10.7
2022-08-17T09:36:02.289Z,9.9
2022-08-17T09:41:02.547Z,10.9
2022-08-17T09:46:02.429Z,10.5
2022-08-17T09:51:05.014Z,10.3
2022-08-17T09:56:02.536Z,10.8
2022-08-17T10:01:02.381Z,10.2
2022-08-17T10:06:02.255Z,10.0
2022-08-17T10:11:02.444Z,10.8
2022-08-17T10:16:02.252Z,9.4
2022-08-17T10:21:02.255Z,9.0
2022-08-17T10:26:02.488Z,9.3
2022-08-17T10:31:30.763Z,9.8
2022-08-17T10:36:03.664Z,9.4
2022-08-17T10:41:02.400Z,9.6
2022-08-17T10:46:17.124Z,9.9
2022-08-17T10:51:02.119Z,10.1
2022-08-17T10:56:02.334Z,9.5
2022-08-17T11:01:02.322Z,10.0
2022-08-17T11:06:02.261Z,9.9
2022-08-17T11:11:02.451Z,8.6
2022-08-17T11:16:07.696Z,9.1
2022-08-17T11:21:02.261Z,7.9
2022-08-17T11:26:02.425Z,8.5
2022-08-17T11:31:02.181Z,8.6
2022-08-17T11:36:02.315Z,8.9
2022-08-17T11:41:02.274Z,10.6
2022-08-17T11:46:02.214Z,9.7
2022-08-17T11:51:02.170Z,8.9
2022-08-17T11:56:02.594Z,8.0
2022-08-17T12:01:02.134Z,7.5
2022-08-17T12:06:02.479Z,7.4
2022-08-17T12:11:02.312Z,7.0
2022-08-17T12:16:02.135Z,7.2
2022-08-17T12:21:02.633Z,8.1
2022-08-17T12:26:02.490Z,8.9
2022-08-17T12:31:02.061Z,6.7
2022-08-17T12:36:02.095Z,6.5
2022-08-17T12:41:02.520Z,7.3
2022-08-17T12:46:13.180Z,7.3
2022-08-17T12:51:02.165Z,7.0
2022-08-17T12:56:02.177Z,7.1
2022-08-17T13:01:02.153Z,7.1
2022-08-17T13:06:02.346Z,7.5
2022-08-17T13:11:02.490Z,8.6
2022-08-17T13:16:02.145Z,7.1
2022-08-17T13:21:02.169Z,8.1
2022-08-17T13:26:02.284Z,8.0
2022-08-17T13:31:02.027Z,7.9
2022-08-17T13:36:02.836Z,7.6
2022-08-17T13:41:03.547Z,7.7
2022-08-17T13:46:02.058Z,7.1
2022-08-17T13:51:02.528Z,6.8
2022-08-17T13:56:02.331Z,6.9
2022-08-17T14:01:02.181Z,7.2
2022-08-17T14:06:02.045Z,6.8
2022-08-17T14:11:02.271Z,6.8
2022-08-17T14:16:01.939Z,6.5
2022-08-17T14:21:02.018Z,6.3
2022-08-17T14:26:02.117Z,7.1
2022-08-17T14:31:03.196Z,7.5
2022-08-17T14:36:02.206Z,6.6
2022-08-17T14:41:02.304Z,6.4
2022-08-17T14:46:02.078Z,7.1
2022-08-17T14:51:02.060Z,6.4
2022-08-17T14:56:03.571Z,6.0
2022-08-17T15:01:02.059Z,7.0
2022-08-17T15:06:02.001Z,6.5
2022-08-17T15:11:02.083Z,6.8
2022-08-17T15:16:01.819Z,6.6
2022-08-17T15:21:02.050Z,6.6
2022-08-17T15:26:14.143Z,5.7
2022-08-17T15:31:14.125Z,4.8
2022-08-17T15:36:14.001Z,7.0
2022-08-17T15:41:14.173Z,6.3
2022-08-17T15:46:14.095Z,6.0
2022-08-17T15:51:14.321Z,7.5
2022-08-17T15:56:14.001Z,7.8
2022-08-17T16:01:16.804Z,7.9
2022-08-17T16:06:14.662Z,7.3
2022-08-17T16:11:14.290Z,6.8
2022-08-17T16:16:14.072Z,7.8
2022-08-17T16:21:14.228Z,6.7
2022-08-17T16:26:14.034Z,8.1
2022-08-17T16:31:14.098Z,7.2
2022-08-17T16:36:14.114Z,6.9
2022-08-17T16:41:14.043Z,7.1
2022-08-17T16:46:14.045Z,7.1
2022-08-17T16:51:13.966Z,7.4
2022-08-17T16:56:14.124Z,7.2
2022-08-17T17:01:14.114Z,8.0
2022-08-17T17:06:14.017Z,8.1
2022-08-17T17:11:14.136Z,8.4
2022-08-17T17:16:14.054Z,8.2
2022-08-17T17:21:14.049Z,7.9
2022-08-17T17:26:14.098Z,7.7
2022-08-17T17:31:13.920Z,8.5
2022-08-17T17:36:14.002Z,8.4
2022-08-17T17:41:14.145Z,8.3
2022-08-17T17:46:27.664Z,8.5
2022-08-17T17:51:13.871Z,9.5
2022-08-17T17:56:21.220Z,10.2
2022-08-17T18:01:14.206Z,10.0
2022-08-17T18:06:14.893Z,10.8
2022-08-17T18:11:13.788Z,11.2
2022-08-17T18:21:14.362Z,11.4
2022-08-17T18:26:13.988Z,12.1
2022-08-17T18:31:14.016Z,10.9
2022-08-17T18:36:14.436Z,11.1
2022-08-17T18:41:14.284Z,10.8
2022-08-17T18:46:13.835Z,12.1
2022-08-17T18:51:14.260Z,12.4
2022-08-17T18:56:13.923Z,12.5
2022-08-17T19:01:13.887Z,12.5
2022-08-17T19:06:14.374Z,11.4
2022-08-17T19:11:13.778Z,12.2
2022-08-17T19:16:15.577Z,11.7
2022-08-17T19:21:19.416Z,11.6
2022-08-17T19:26:51.395Z,10.9
2022-08-17T19:31:14.399Z,11.0
2022-08-17T19:36:14.112Z,11.6
2022-08-17T19:41:13.767Z,11.5
2022-08-17T19:46:13.869Z,11.5
2022-08-17T19:51:13.765Z,11.2
2022-08-17T19:56:13.788Z,10.7
2022-08-17T20:01:13.914Z,12.3
2022-08-17T20:06:14.330Z,12.0
2022-08-17T20:11:13.768Z,12.0
2022-08-17T20:16:14.025Z,12.8
2022-08-17T20:21:20.296Z,12.4
2022-08-17T20:26:17.256Z,12.7
2022-08-17T20:31:15.000Z,13.0
2022-08-17T20:36:13.635Z,12.7
2022-08-17T20:41:14.508Z,12.6
2022-08-17T20:46:13.794Z,13.5
2022-08-17T20:51:13.615Z,13.2
2022-08-17T20:56:13.680Z,13.5
2022-08-17T21:01:14.062Z,14.0
2022-08-17T21:06:17.599Z,13.5
2022-08-17T21:11:13.603Z,14.0
2022-08-17T21:16:13.860Z,14.3
2022-08-17T21:21:17.413Z,14.8
2022-08-17T21:26:13.627Z,15.6
2022-08-17T21:31:13.761Z,14.6
2022-08-17T21:36:13.603Z,14.7
2022-08-17T21:41:13.578Z,15.2
2022-08-17T21:46:13.762Z,15.6
2022-08-17T21:51:13.651Z,16.6
2022-08-17T21:56:13.811Z,15.6
2022-08-17T22:01:13.563Z,14.6
2022-08-17T22:06:13.516Z,16.1
2022-08-17T22:11:13.491Z,16.6
2022-08-17T22:16:28.133Z,18.4
2022-08-17T22:21:13.481Z,19.3
2022-08-17T22:26:13.466Z,20.5
2022-08-17T22:31:14.657Z,20.1
2022-08-17T22:36:13.526Z,20.3
2022-08-17T22:41:13.549Z,20.2
2022-08-17T22:46:13.613Z,20.0
2022-08-17T22:51:13.988Z,21.0
2022-08-17T22:56:13.455Z,21.0
2022-08-17T23:01:13.663Z,20.5
2022-08-17T23:06:13.467Z,21.1
2022-08-17T23:11:13.377Z,21.0
2022-08-17T23:16:13.750Z,19.0
2022-08-17T23:21:13.472Z,19.5
2022-08-17T23:26:13.574Z,20.1
2022-08-17T23:31:13.617Z,20.2
2022-08-17T23:36:13.569Z,17.8
2022-08-17T23:41:13.476Z,17.9
2022-08-17T23:46:13.412Z,18.7
2022-08-17T23:51:13.366Z,17.7
2022-08-17T23:56:13.493Z,18.3
